createdAt,value
2022-08-30T00:01:01.889Z,84.95
2022-08-30T00:03:34.581Z,84.85
2022-08-30T00:06:01.065Z,84.72
2022-08-30T00:08:27.847Z,84.83
2022-08-30T00:10:54.776Z,84.88
2022-08-30T00:13:22.407Z,84.62
2022-08-30T00:15:49.255Z,84.40
2022-08-30T00:18:18.193Z,84.62
2022-08-30T00:20:47.676Z,84.57
2022-08-30T00:23:14.588Z,84.92
2022-08-30T00:25:42.176Z,84.68
2022-08-30T00:28:09.685Z,85.73
2022-08-30T00:30:37.519Z,86.02
2022-08-30T00:33:04.604Z,86.14
2022-08-30T00:35:31.331Z,86.54
2022-08-30T00:37:58.427Z,86.35
2022-08-30T00:40:27.934Z,86.66
2022-08-30T00:43:02.262Z,86.37
2022-08-30T00:45:35.301Z,85.78
2022-08-30T00:48:02.845Z,85.92
2022-08-30T00:50:32.792Z,85.92
2022-08-30T00:53:01.141Z,86.80
2022-08-30T00:55:29.612Z,87.05
2022-08-30T00:58:00.227Z,86.63
2022-08-30T01:00:28.664Z,86.35
2022-08-30T01:02:55.651Z,86.38
2022-08-30T01:05:24.324Z,86.41
2022-08-30T01:07:50.769Z,86.60
2022-08-30T01:10:18.312Z,86.51
2022-08-30T01:12:45.309Z,86.39
2022-08-30T01:15:14.458Z,85.83
2022-08-30T01:17:43.762Z,85.51
2022-08-30T01:20:38.271Z,85.84
2022-08-30T01:23:14.621Z,85.67
2022-08-30T01:25:43.752Z,85.57
2022-08-30T01:28:15.782Z,85.72
2022-08-30T01:30:45.746Z,85.27
2022-08-30T01:33:13.495Z,85.31
2022-08-30T01:35:56.843Z,85.25
2022-08-30T01:38:28.735Z,85.22
2022-08-30T01:41:10.576Z,85.27
2022-08-30T01:43:37.326Z,86.20
2022-08-30T01:46:06.163Z,85.95
2022-08-30T01:48:34.835Z,85.46
2022-08-30T01:51:02.278Z,85.73
2022-08-30T01:53:29.227Z,85.32
2022-08-30T01:55:56.380Z,85.62
2022-08-30T01:58:23.208Z,85.96
2022-08-30T02:00:50.225Z,85.78
2022-08-30T02:03:17.188Z,86.32
2022-08-30T02:05:43.687Z,86.69
2022-08-30T02:08:10.071Z,86.20
2022-08-30T02:10:36.869Z,86.33
2022-08-30T02:13:04.176Z,85.90
2022-08-30T02:15:30.680Z,85.97
2022-08-30T02:18:01.417Z,85.83
2022-08-30T02:20:28.602Z,85.65
2022-08-30T02:22:56.725Z,85.87
2022-08-30T02:25:26.030Z,85.79
2022-08-30T02:27:52.792Z,86.27
2022-08-30T02:30:19.148Z,86.32
2022-08-30T02:32:45.514Z,85.86
2022-08-30T02:35:12.263Z,86.05
2022-08-30T02:37:39.043Z,86.42
2022-08-30T02:40:07.482Z,86.33
2022-08-30T02:42:34.078Z,86.15
2022-08-30T02:45:01.077Z,87.27
2022-08-30T02:47:27.619Z,86.70
2022-08-30T02:49:53.995Z,85.81
2022-08-30T02:52:20.777Z,85.66
2022-08-30T02:54:55.100Z,85.65
2022-08-30T02:57:22.087Z,85.45
2022-08-30T02:59:49.149Z,85.60
2022-08-30T03:02:15.888Z,85.34
2022-08-30T03:04:45.068Z,85.28
2022-08-30T03:07:12.639Z,85.81
2022-08-30T03:09:39.607Z,85.22
2022-08-30T03:12:08.189Z,85.65
2022-08-30T03:14:36.640Z,86.13
2022-08-30T03:17:06.669Z,86.40
2022-08-30T03:19:38.416Z,87.26
2022-08-30T03:22:06.787Z,86.94
2022-08-30T03:24:34.519Z,86.14
2022-08-30T03:27:01.364Z,86.25
2022-08-30T03:29:30.171Z,86.09
2022-08-30T03:31:57.408Z,86.12
2022-08-30T03:34:25.650Z,86.57
2022-08-30T03:36:54.182Z,86.31
2022-08-30T03:39:22.325Z,86.74
2022-08-30T03:41:49.291Z,86.66
2022-08-30T03:44:16.275Z,87.28
2022-08-30T03:46:43.247Z,86.89
2022-08-30T03:49:09.646Z,85.77
2022-08-30T03:51:36.578Z,85.68
2022-08-30T03:54:03.321Z,86.02
2022-08-30T03:56:29.982Z,86.18
2022-08-30T03:58:57.174Z,86.23
2022-08-30T04:01:23.584Z,86.24
2022-08-30T04:03:49.980Z,85.78
2022-08-30T04:06:17.295Z,86.35
2022-08-30T04:08:46.288Z,86.66
2022-08-30T04:11:14.901Z,86.20
2022-08-30T04:13:41.269Z,86.46
2022-08-30T04:16:07.720Z,86.99
2022-08-30T04:18:35.948Z,86.69
2022-08-30T04:21:03.838Z,86.72
2022-08-30T04:23:30.683Z,86.83
2022-08-30T04:25:58.048Z,86.55
2022-08-30T04:28:24.403Z,86.48
2022-08-30T04:30:51.243Z,86.14
2022-08-30T04:33:18.144Z,86.36
2022-08-30T04:35:47.730Z,86.31
2022-08-30T04:38:15.851Z,85.96
2022-08-30T04:40:44.148Z,86.60
2022-08-30T04:43:12.712Z,86.58
2022-08-30T04:45:40.940Z,86.17
2022-08-30T04:48:08.525Z,86.37
2022-08-30T04:50:34.916Z,86.40
2022-08-30T04:53:01.827Z,85.83
2022-08-30T04:55:28.350Z,85.67
2022-08-30T04:57:54.924Z,85.70
2022-08-30T05:00:21.919Z,85.33
2022-08-30T05:02:48.994Z,84.80
2022-08-30T05:05:34.206Z,84.78
2022-08-30T05:08:00.743Z,84.90
2022-08-30T05:10:29.938Z,85.44
2022-08-30T05:12:56.851Z,84.85
2022-08-30T05:15:23.809Z,85.27
2022-08-30T05:17:50.238Z,84.98
2022-08-30T05:20:17.688Z,84.37
2022-08-30T05:22:53.273Z,83.72
2022-08-30T05:25:26.538Z,84.11
2022-08-30T05:27:53.582Z,84.04
2022-08-30T05:30:21.474Z,84.21
2022-08-30T05:32:48.434Z,84.74
2022-08-30T05:35:17.283Z,84.20
2022-08-30T05:37:43.843Z,83.65
2022-08-30T05:40:11.856Z,83.88
2022-08-30T05:42:41.235Z,84.60
2022-08-30T05:45:08.476Z,84.63
2022-08-30T05:47:35.959Z,84.66
2022-08-30T05:50:02.903Z,84.54
2022-08-30T05:52:29.313Z,83.42
2022-08-30T05:55:00.447Z,83.40
2022-08-30T05:57:26.838Z,83.12
2022-08-30T05:59:53.223Z,83.04
2022-08-30T06:02:19.993Z,82.43
2022-08-30T06:04:46.427Z,82.40
2022-08-30T06:07:15.746Z,83.24
2022-08-30T06:09:44.282Z,82.75
2022-08-30T06:12:10.755Z,79.74
2022-08-30T06:14:39.549Z,77.90
2022-08-30T06:17:06.511Z,71.63
2022-08-30T06:19:32.935Z,72.93
2022-08-30T06:22:01.170Z,65.30
2022-08-30T06:24:41.041Z,63.18
2022-08-30T06:27:14.586Z,62.39
2022-08-30T06:29:41.606Z,62.38
2022-08-30T06:32:08.014Z,61.22
2022-08-30T06:34:34.950Z,57.86
2022-08-30T06:37:01.375Z,53.71
2022-08-30T06:39:27.901Z,52.03
2022-08-30T06:41:54.587Z,51.09
2022-08-30T06:44:21.116Z,50.37
2022-08-30T06:46:47.931Z,49.04
2022-08-30T06:49:14.871Z,47.39
2022-08-30T06:51:42.110Z,43.47
2022-08-30T06:54:11.997Z,44.51
2022-08-30T06:56:48.593Z,43.13
2022-08-30T06:59:24.473Z,41.87
2022-08-30T07:01:50.892Z,41.07
2022-08-30T07:04:17.613Z,41.48
2022-08-30T07:06:44.848Z,40.63
2022-08-30T07:09:11.663Z,41.18
2022-08-30T07:11:41.285Z,40.47
2022-08-30T07:14:08.452Z,40.93
2022-08-30T07:16:35.959Z,39.68
2022-08-30T07:19:03.851Z,37.89
2022-08-30T07:21:49.558Z,36.46
2022-08-30T07:24:16.493Z,36.48
2022-08-30T07:26:47.164Z,37.28
2022-08-30T07:29:13.959Z,39.13
2022-08-30T07:31:40.445Z,41.06
2022-08-30T07:34:08.514Z,40.77
2022-08-30T07:36:37.483Z,38.86
2022-08-30T07:39:05.191Z,38.24
2022-08-30T07:41:35.656Z,37.61
2022-08-30T07:44:02.325Z,40.05
2022-08-30T07:46:28.895Z,39.64
2022-08-30T07:48:56.352Z,39.70
2022-08-30T07:51:26.304Z,38.75
2022-08-30T07:53:53.174Z,39.31
2022-08-30T07:56:21.105Z,39.77
2022-08-30T07:58:48.882Z,37.66
2022-08-30T08:01:17.161Z,37.59
2022-08-30T08:03:44.339Z,35.97
2022-08-30T08:06:13.919Z,34.68
2022-08-30T08:08:42.188Z,33.50
2022-08-30T08:11:16.442Z,34.59
2022-08-30T08:13:53.013Z,33.97
2022-08-30T08:16:27.355Z,33.52
2022-08-30T08:18:54.560Z,32.71
2022-08-30T08:21:22.588Z,35.63
2022-08-30T08:23:49.967Z,33.88
2022-08-30T08:26:16.565Z,35.12
2022-08-30T08:28:44.928Z,35.03
2022-08-30T08:31:20.633Z,33.37
2022-08-30T08:33:47.344Z,35.84
2022-08-30T08:36:14.034Z,35.79
2022-08-30T08:38:40.853Z,35.14
2022-08-30T08:41:28.626Z,34.82
2022-08-30T08:43:55.577Z,33.42
2022-08-30T08:46:40.294Z,34.29
2022-08-30T08:49:12.535Z,32.90
2022-08-30T08:51:58.411Z,30.99
2022-08-30T08:54:34.669Z,34.42
2022-08-30T08:57:01.132Z,36.43
2022-08-30T08:59:28.203Z,38.48
2022-08-30T09:01:59.374Z,37.77
2022-08-30T09:04:32.377Z,36.12
2022-08-30T09:07:05.731Z,35.12
2022-08-30T09:09:35.744Z,35.84
2022-08-30T09:12:03.968Z,36.20
2022-08-30T09:14:36.836Z,34.93
2022-08-30T09:17:09.547Z,36.75
2022-08-30T09:19:51.698Z,34.00
2022-08-30T09:22:26.930Z,33.62
2022-08-30T09:25:13.513Z,33.76
2022-08-30T09:27:40.339Z,33.88
2022-08-30T09:30:16.935Z,32.97
2022-08-30T09:32:53.009Z,32.38
2022-08-30T09:35:42.837Z,31.19
2022-08-30T09:38:19.163Z,30.16
2022-08-30T09:40:55.507Z,30.92
2022-08-30T09:43:23.876Z,31.16
2022-08-30T09:46:01.592Z,33.45
2022-08-30T09:48:33.050Z,33.97
2022-08-30T09:51:12.047Z,34.67
2022-08-30T09:57:03.335Z,32.66
2022-08-30T10:00:08.455Z,32.20
2022-08-30T10:02:46.727Z,33.13
2022-08-30T10:05:20.703Z,35.83
2022-08-30T10:08:06.080Z,32.31
2022-08-30T10:10:51.623Z,33.53
2022-08-30T10:13:42.652Z,32.35
2022-08-30T10:16:19.591Z,36.29
2022-08-30T10:19:17.422Z,34.32
2022-08-30T10:21:51.553Z,32.99
2022-08-30T10:24:24.280Z,33.15
2022-08-30T10:27:05.314Z,33.41
2022-08-30T10:29:34.175Z,32.12
2022-08-30T10:32:17.918Z,30.50
2022-08-30T10:35:05.907Z,30.61
2022-08-30T10:37:39.068Z,32.30
2022-08-30T10:40:33.497Z,29.81
2022-08-30T10:43:04.606Z,29.80
2022-08-30T10:45:35.745Z,30.22
2022-08-30T10:48:21.024Z,29.34
2022-08-30T10:50:54.146Z,30.38
2022-08-30T10:53:36.953Z,30.38
2022-08-30T10:56:11.470Z,30.11
2022-08-30T10:58:41.412Z,30.58
2022-08-30T11:01:31.493Z,29.95
2022-08-30T11:04:07.265Z,31.33
2022-08-30T11:06:56.339Z,30.61
2022-08-30T11:10:00.213Z,29.54
2022-08-30T11:12:37.623Z,30.11
2022-08-30T11:15:15.770Z,28.98
2022-08-30T11:18:09.523Z,31.18
2022-08-30T11:20:43.328Z,33.09
2022-08-30T11:23:30.521Z,31.08
2022-08-30T11:26:12.153Z,28.48
2022-08-30T11:28:47.106Z,28.30
2022-08-30T11:31:22.647Z,31.81
2022-08-30T11:33:59.473Z,33.82
2022-08-30T11:36:37.753Z,27.98
2022-08-30T11:39:09.447Z,28.01
2022-08-30T11:41:46.142Z,30.62
2022-08-30T11:44:32.259Z,30.13
2022-08-30T11:47:02.446Z,28.04
2022-08-30T11:49:50.184Z,29.01
2022-08-30T11:52:35.278Z,32.18
2022-08-30T11:55:37.126Z,29.66
2022-08-30T11:58:28.039Z,29.16
2022-08-30T12:01:49.634Z,29.91
2022-08-30T12:04:17.645Z,28.33
2022-08-30T12:06:52.784Z,30.27
2022-08-30T12:09:25.359Z,29.24
2022-08-30T12:12:11.592Z,29.10
2022-08-30T12:14:47.483Z,29.10
2022-08-30T12:17:41.616Z,28.83
2022-08-30T12:20:40.963Z,29.28
2022-08-30T12:23:26.991Z,28.26
2022-08-30T12:26:34.434Z,28.69
2022-08-30T12:29:24.426Z,29.29
2022-08-30T12:31:55.519Z,31.02
2022-08-30T12:34:24.684Z,30.54
2022-08-30T12:36:58.705Z,31.06
2022-08-30T12:39:33.730Z,31.08
2022-08-30T12:42:22.257Z,34.45
2022-08-30T12:44:55.618Z,33.85
2022-08-30T12:47:31.581Z,32.46
2022-08-30T12:49:59.505Z,34.68
2022-08-30T12:52:26.433Z,31.62
2022-08-30T12:54:55.683Z,33.00
2022-08-30T12:57:43.188Z,31.81
2022-08-30T13:00:34.062Z,31.92
2022-08-30T13:03:25.146Z,31.56
2022-08-30T13:05:53.370Z,32.11
2022-08-30T13:08:36.862Z,29.99
2022-08-30T13:11:25.416Z,29.32
2022-08-30T13:14:18.246Z,28.34
2022-08-30T13:16:46.407Z,29.90
2022-08-30T13:19:33.556Z,29.70
2022-08-30T13:22:01.421Z,30.35
2022-08-30T13:24:29.031Z,30.32
2022-08-30T13:26:58.171Z,28.92
2022-08-30T13:29:27.876Z,28.19
2022-08-30T13:31:55.796Z,28.71
2022-08-30T13:34:22.772Z,27.04
2022-08-30T13:36:58.216Z,28.18
2022-08-30T13:39:25.099Z,29.59
2022-08-30T13:41:52.682Z,30.10
2022-08-30T13:44:19.898Z,30.83
2022-08-30T13:46:54.409Z,31.94
2022-08-30T13:52:21.560Z,33.00
2022-08-30T13:54:53.916Z,32.06
2022-08-30T14:00:14.903Z,33.92
2022-08-30T14:02:45.362Z,33.10
2022-08-30T14:05:30.835Z,34.65
2022-08-30T14:08:00.582Z,33.26
2022-08-30T14:10:31.153Z,34.29
2022-08-30T14:13:08.191Z,36.46
2022-08-30T14:15:39.036Z,36.59
2022-08-30T14:18:06.675Z,36.99
2022-08-30T14:20:35.348Z,34.67
2022-08-30T14:23:07.667Z,35.21
2022-08-30T14:25:37.650Z,36.12
2022-08-30T14:28:07.032Z,35.99
2022-08-30T14:30:33.897Z,35.53
2022-08-30T14:33:00.455Z,35.30
2022-08-30T14:35:26.826Z,34.90
2022-08-30T14:37:54.496Z,34.59
2022-08-30T14:40:21.002Z,34.63
2022-08-30T14:42:47.385Z,34.49
2022-08-30T14:45:14.389Z,34.63
2022-08-30T14:47:40.831Z,34.96
2022-08-30T14:50:07.995Z,34.76
2022-08-30T14:52:35.366Z,34.95
2022-08-30T14:55:08.515Z,35.87
2022-08-30T14:57:35.627Z,37.28
2022-08-30T15:00:07.779Z,36.57
2022-08-30T15:02:34.208Z,37.11
2022-08-30T15:05:00.693Z,36.63
2022-08-30T15:07:27.925Z,35.43
2022-08-30T15:09:54.409Z,34.17
2022-08-30T15:12:20.879Z,34.46
2022-08-30T15:14:47.677Z,33.36
2022-08-30T15:17:14.087Z,33.63
2022-08-30T15:19:41.789Z,33.86
2022-08-30T15:22:09.685Z,33.76
2022-08-30T15:24:36.667Z,35.50
2022-08-30T15:27:03.397Z,35.37
2022-08-30T15:29:31.740Z,35.47
2022-08-30T15:31:58.959Z,36.48
2022-08-30T15:34:26.194Z,35.88
2022-08-30T15:36:55.044Z,37.71
2022-08-30T15:39:21.473Z,38.40
2022-08-30T15:41:56.039Z,38.31
2022-08-30T15:44:25.427Z,37.93
2022-08-30T15:46:52.060Z,38.17
2022-08-30T15:49:21.478Z,37.93
2022-08-30T15:51:51.548Z,36.80
2022-08-30T15:54:23.179Z,37.11
2022-08-30T15:56:50.714Z,37.27
2022-08-30T15:59:18.661Z,37.65
2022-08-30T16:01:45.389Z,38.38
2022-08-30T16:04:18.648Z,38.13
2022-08-30T16:06:46.030Z,39.09
2022-08-30T16:09:12.466Z,40.01
2022-08-30T16:11:39.889Z,39.49
2022-08-30T16:14:06.371Z,39.08
2022-08-30T16:16:33.307Z,38.08
2022-08-30T16:19:01.735Z,39.45
2022-08-30T16:21:33.140Z,39.46
2022-08-30T16:24:01.408Z,40.35
2022-08-30T16:26:30.630Z,40.84
2022-08-30T16:28:58.705Z,41.15
2022-08-30T16:31:27.356Z,41.70
2022-08-30T16:33:55.641Z,41.48
2022-08-30T16:36:29.627Z,42.03
2022-08-30T16:38:58.310Z,41.45
2022-08-30T16:41:25.256Z,41.72
2022-08-30T16:43:53.648Z,41.08
2022-08-30T16:46:23.352Z,40.79
2022-08-30T16:48:56.174Z,41.31
2022-08-30T16:51:24.383Z,41.13
2022-08-30T16:53:54.725Z,41.11
2022-08-30T16:56:24.423Z,41.62
2022-08-30T16:59:00.708Z,42.17
2022-08-30T17:01:29.010Z,42.23
2022-08-30T17:03:55.912Z,43.04
2022-08-30T17:06:22.623Z,43.97
2022-08-30T17:08:48.967Z,44.16
2022-08-30T17:11:22.860Z,44.88
2022-08-30T17:13:49.248Z,45.82
2022-08-30T17:16:27.693Z,45.82
2022-08-30T17:19:00.813Z,46.12
2022-08-30T17:21:29.526Z,46.81
2022-08-30T17:24:01.462Z,46.85
2022-08-30T17:26:29.252Z,47.65
2022-08-30T17:28:55.622Z,47.85
2022-08-30T17:31:22.398Z,47.70
2022-08-30T17:33:50.002Z,48.18
2022-08-30T17:36:16.410Z,48.30
2022-08-30T17:38:45.200Z,48.51
2022-08-30T17:41:13.498Z,48.57
2022-08-30T17:43:40.133Z,48.70
2022-08-30T17:46:12.002Z,48.65
2022-08-30T17:48:40.971Z,49.75
2022-08-30T17:51:07.946Z,50.55
2022-08-30T17:53:34.599Z,50.75
2022-08-30T17:56:01.483Z,51.27
2022-08-30T17:58:28.051Z,51.17
2022-08-30T18:01:11.689Z,51.94
2022-08-30T18:03:39.246Z,52.11
2022-08-30T18:06:06.671Z,52.67
2022-08-30T18:08:34.028Z,53.13
2022-08-30T18:11:01.074Z,54.02
2022-08-30T18:13:27.479Z,55.98
2022-08-30T18:15:54.280Z,56.52
2022-08-30T18:18:21.108Z,56.89
2022-08-30T18:20:47.755Z,57.19
2022-08-30T18:23:14.981Z,59.03
2022-08-30T18:25:42.031Z,59.21
2022-08-30T18:28:08.732Z,59.93
2022-08-30T18:30:41.410Z,60.70
2022-08-30T18:33:09.202Z,61.57
2022-08-30T18:35:36.346Z,61.54
2022-08-30T18:38:03.809Z,61.50
2022-08-30T18:40:30.438Z,61.67
2022-08-30T18:42:56.807Z,62.44
2022-08-30T18:45:24.347Z,62.99
2022-08-30T18:47:50.813Z,62.89
2022-08-30T18:50:17.309Z,63.74
2022-08-30T18:52:47.054Z,63.65
2022-08-30T18:55:14.003Z,64.34
2022-08-30T18:57:40.642Z,64.76
2022-08-30T19:00:09.761Z,65.39
2022-08-30T19:02:36.652Z,65.72
2022-08-30T19:05:03.361Z,65.93
2022-08-30T19:07:34.400Z,66.50
2022-08-30T19:10:05.483Z,66.55
2022-08-30T19:12:32.262Z,66.73
2022-08-30T19:14:59.271Z,66.67
2022-08-30T19:17:27.078Z,66.69
2022-08-30T19:19:54.913Z,66.88
2022-08-30T19:22:26.793Z,67.07
2022-08-30T19:24:55.171Z,67.08
2022-08-30T19:27:37.785Z,67.47
2022-08-30T19:30:08.843Z,68.31
2022-08-30T19:32:35.691Z,68.92
2022-08-30T19:35:02.068Z,68.98
2022-08-30T19:37:29.545Z,69.45
2022-08-30T19:39:56.295Z,69.90
2022-08-30T19:42:27.051Z,69.61
2022-08-30T19:44:53.448Z,69.59
2022-08-30T19:47:19.822Z,69.33
2022-08-30T19:49:46.752Z,69.69
2022-08-30T19:52:13.647Z,70.14
2022-08-30T19:57:27.517Z,70.67
2022-08-30T19:59:54.236Z,70.50
2022-08-30T20:02:20.705Z,70.52
2022-08-30T20:04:47.466Z,70.22
2022-08-30T20:07:14.492Z,69.87
2022-08-30T20:09:41.211Z,69.44
2022-08-30T20:12:07.755Z,69.66
2022-08-30T20:14:34.107Z,70.16
2022-08-30T20:17:02.237Z,70.78
2022-08-30T20:19:29.336Z,71.05
2022-08-30T20:21:59.073Z,71.20
2022-08-30T20:24:32.574Z,71.95
2022-08-30T20:26:59.266Z,71.45
2022-08-30T20:29:25.619Z,71.89
2022-08-30T20:31:52.431Z,71.14
2022-08-30T20:34:24.499Z,70.99
2022-08-30T20:36:52.464Z,70.87
2022-08-30T20:39:22.391Z,70.54
2022-08-30T20:41:49.294Z,70.83
2022-08-30T20:44:16.857Z,70.92
2022-08-30T20:46:46.024Z,71.31
2022-08-30T20:49:13.036Z,70.22
2022-08-30T20:51:40.042Z,70.81
2022-08-30T20:54:07.474Z,70.09
2022-08-30T20:56:34.410Z,70.42
2022-08-30T20:59:02.638Z,70.45
2022-08-30T21:01:31.610Z,71.20
2022-08-30T21:03:58.182Z,71.04
2022-08-30T21:06:25.235Z,71.66
2022-08-30T21:08:52.771Z,71.68
2022-08-30T21:11:19.560Z,71.89
2022-08-30T21:13:48.204Z,72.16
2022-08-30T21:16:17.110Z,72.43
2022-08-30T21:18:48.707Z,72.39
2022-08-30T21:21:22.711Z,73.18
2022-08-30T21:23:50.477Z,73.07
2022-08-30T21:26:17.479Z,73.18
2022-08-30T21:28:47.394Z,73.24
2022-08-30T21:31:19.252Z,72.87
2022-08-30T21:33:48.226Z,73.27
2022-08-30T21:36:34.460Z,73.25
2022-08-30T21:39:01.138Z,73.14
2022-08-30T21:41:28.713Z,73.13
2022-08-30T21:44:01.197Z,72.67
2022-08-30T21:46:29.264Z,72.53
2022-08-30T21:48:59.100Z,72.70
2022-08-30T21:51:25.798Z,72.79
2022-08-30T21:53:52.162Z,72.90
2022-08-30T21:56:22.114Z,73.78
2022-08-30T21:58:50.199Z,74.07
2022-08-30T22:01:24.939Z,73.78
2022-08-30T22:03:57.184Z,73.28
2022-08-30T22:06:25.230Z,73.14
2022-08-30T22:08:59.489Z,72.40
2022-08-30T22:11:27.375Z,73.31
2022-08-30T22:13:54.933Z,73.15
2022-08-30T22:16:23.096Z,73.33
2022-08-30T22:18:50.356Z,72.94
2022-08-30T22:21:20.702Z,72.41
2022-08-30T22:23:47.126Z,71.92
2022-08-30T22:26:16.212Z,71.22
2022-08-30T22:28:42.675Z,71.87
2022-08-30T22:31:12.283Z,71.39
2022-08-30T22:33:39.418Z,70.63
2022-08-30T22:36:21.310Z,70.33
2022-08-30T22:38:48.767Z,70.83
2022-08-30T22:41:17.474Z,70.86
2022-08-30T22:43:45.192Z,71.16
2022-08-30T22:46:12.073Z,70.52
2022-08-30T22:48:40.903Z,69.93
2022-08-30T22:51:08.469Z,69.87
2022-08-30T22:53:34.876Z,69.68
2022-08-30T22:56:09.459Z,69.54
2022-08-30T22:58:36.206Z,68.86
2022-08-30T23:01:02.707Z,68.69
2022-08-30T23:03:29.225Z,68.79
2022-08-30T23:05:55.946Z,68.54
2022-08-30T23:08:22.928Z,68.78
2022-08-30T23:10:49.369Z,68.62
2022-08-30T23:13:15.742Z,69.46
2022-08-30T23:15:42.870Z,69.41
2022-08-30T23:18:09.603Z,69.25
2022-08-30T23:20:36.060Z,69.72
2022-08-30T23:23:03.015Z,69.78
2022-08-30T23:25:51.866Z,69.88
2022-08-30T23:28:39.427Z,70.29
2022-08-30T23:31:33.974Z,70.25
2022-08-30T23:34:20.533Z,69.84
2022-08-30T23:37:05.900Z,69.74
2022-08-30T23:39:51.825Z,69.18
2022-08-30T23:42:36.606Z,68.53
2022-08-30T23:45:21.991Z,68.77
2022-08-30T23:48:06.735Z,68.85
2022-08-30T23:50:51.968Z,69.01
2022-08-30T23:53:36.748Z,69.78
2022-08-30T23:56:22.412Z,69.18
2022-08-30T23:59:07.275Z,69.06
